Terminal Aerodrome Forecast
Issued by NWS

Home | Current Version | Previous Version | Text Only | Print | Product List | Glossary On
Versions: 1 2 3 4 5 6 7 8 9 10 11 12 13
000
FTUS43 KJKL 111100
TAFSME
TAF
KSME 111120Z 1112/1212 00000KT 6SM BR SKC
     FM111230 VRB04KT P6SM SKC
     FM121000 00000KT 5SM BR SKC=

USA.gov is the U.S. government's official web portal to all federal, state and local government web resources and services.